createdAt,value
2018-10-06T00:02:44.845Z,6.50
2018-10-06T00:06:47.676Z,7.80
2018-10-06T00:10:50.566Z,8.10
2018-10-06T00:14:53.411Z,8.83
2018-10-06T00:18:56.314Z,7.43
2018-10-06T00:22:59.154Z,7.87
2018-10-06T00:27:02.074Z,8.30
2018-10-06T00:31:04.931Z,8.13
2018-10-06T00:35:07.859Z,6.00
2018-10-06T00:39:10.822Z,5.33
2018-10-06T00:43:13.949Z,5.10
2018-10-06T00:47:17.039Z,5.80
2018-10-06T00:51:19.892Z,5.63
2018-10-06T00:55:22.737Z,4.83
2018-10-06T00:59:25.620Z,5.70
2018-10-06T01:03:28.671Z,4.70
2018-10-06T01:07:31.567Z,5.73
2018-10-06T01:11:34.416Z,9.20
2018-10-06T01:15:37.797Z,6.50
2018-10-06T01:19:41.330Z,5.50
2018-10-06T01:23:44.554Z,5.63
2018-10-06T01:27:47.394Z,6.30
2018-10-06T01:31:50.506Z,5.40
2018-10-06T01:35:53.358Z,4.63
2018-10-06T01:39:56.272Z,5.27
2018-10-06T01:43:59.331Z,5.20
2018-10-06T01:48:02.226Z,6.33
2018-10-06T01:52:05.073Z,7.37
2018-10-06T01:56:07.970Z,7.67
2018-10-06T02:00:10.870Z,6.90
2018-10-06T02:04:13.975Z,6.80
2018-10-06T02:08:16.815Z,6.43
2018-10-06T02:12:19.724Z,5.67
2018-10-06T02:16:22.889Z,7.00
2018-10-06T02:20:25.805Z,5.43
2018-10-06T02:24:28.660Z,6.63
2018-10-06T02:28:31.751Z,4.40
2018-10-06T02:32:34.802Z,4.33
2018-10-06T02:36:37.750Z,3.77
2018-10-06T02:40:40.542Z,5.10
2018-10-06T02:44:43.503Z,7.43
2018-10-06T02:48:46.358Z,5.87
2018-10-06T02:52:49.258Z,7.87
2018-10-06T02:56:52.308Z,6.33
2018-10-06T03:00:55.199Z,8.13
2018-10-06T03:04:58.154Z,8.87
2018-10-06T03:09:01.251Z,7.73
2018-10-06T03:13:04.096Z,7.90
2018-10-06T03:17:07.151Z,7.17
2018-10-06T03:21:09.996Z,6.60
2018-10-06T03:25:12.962Z,5.90
2018-10-06T03:29:15.806Z,7.27
2018-10-06T03:33:18.770Z,5.60
2018-10-06T03:37:21.823Z,6.30
2018-10-06T03:41:24.987Z,7.00
2018-10-06T03:45:27.843Z,8.83
2018-10-06T03:49:30.955Z,7.23
2018-10-06T03:53:33.798Z,8.23
2018-10-06T03:57:37.396Z,7.90
2018-10-06T04:01:40.231Z,8.83
2018-10-06T04:05:43.143Z,9.73
2018-10-06T04:09:45.985Z,12.00
2018-10-06T04:13:48.894Z,7.10
2018-10-06T04:17:52.054Z,8.80
2018-10-06T04:21:54.959Z,10.07
2018-10-06T04:25:57.822Z,11.83
2018-10-06T04:30:00.947Z,15.77
2018-10-06T04:34:03.898Z,12.73
2018-10-06T04:38:06.782Z,14.60
2018-10-06T04:42:09.654Z,14.17
2018-10-06T04:46:12.828Z,12.30
2018-10-06T04:50:15.674Z,12.80
2018-10-06T04:54:18.583Z,12.97
2018-10-06T04:58:21.647Z,12.43
2018-10-06T05:02:24.547Z,12.60
2018-10-06T05:06:27.395Z,11.30
2018-10-06T05:10:30.499Z,12.47
2018-10-06T05:14:33.334Z,12.77
2018-10-06T05:18:36.815Z,10.27
2018-10-06T05:22:40.582Z,10.33
2018-10-06T05:26:43.691Z,10.43
2018-10-06T05:30:46.547Z,10.00
2018-10-06T05:34:49.446Z,10.43
2018-10-06T05:38:52.287Z,10.80
2018-10-06T05:42:55.399Z,10.87
2018-10-06T05:46:59.271Z,11.30
2018-10-06T05:51:02.391Z,12.77
2018-10-06T05:55:05.243Z,10.87
2018-10-06T05:59:08.212Z,11.27
2018-10-06T06:03:11.195Z,12.63
2018-10-06T06:07:14.104Z,12.00
2018-10-06T06:11:16.978Z,14.57
2018-10-06T06:15:19.899Z,14.60
2018-10-06T06:19:22.871Z,13.17
2018-10-06T06:23:25.830Z,16.00
2018-10-06T06:27:29.090Z,16.93
2018-10-06T06:31:32.242Z,13.53
2018-10-06T06:35:35.059Z,15.17
2018-10-06T06:39:37.983Z,14.63
2018-10-06T06:43:41.070Z,14.93
2018-10-06T06:47:43.948Z,16.60
2018-10-06T06:51:46.799Z,18.10
2018-10-06T06:55:49.911Z,16.40
2018-10-06T06:59:52.762Z,16.17
2018-10-06T07:03:55.693Z,18.20
2018-10-06T07:07:58.678Z,17.70
2018-10-06T07:12:01.791Z,21.90
2018-10-06T07:16:04.634Z,18.73
2018-10-06T07:20:07.691Z,17.87
2018-10-06T07:24:10.755Z,21.73
2018-10-06T07:28:13.926Z,20.00
2018-10-06T07:32:17.219Z,21.57
2018-10-06T07:36:20.066Z,30.17
2018-10-06T07:40:22.975Z,23.80
2018-10-06T07:44:25.829Z,38.40
2018-10-06T07:48:28.939Z,24.10
2018-10-06T07:52:31.815Z,24.63
2018-10-06T07:56:34.721Z,23.47
2018-10-06T08:00:37.844Z,24.70
2018-10-06T08:04:41.227Z,23.80
2018-10-06T08:08:44.288Z,26.23
2018-10-06T08:12:47.178Z,26.13
2018-10-06T08:16:50.058Z,23.97
2018-10-06T08:20:52.959Z,26.03
2018-10-06T08:24:55.817Z,24.97
2018-10-06T08:28:58.911Z,27.90
2018-10-06T08:33:01.870Z,24.37
2018-10-06T08:37:04.770Z,26.37
2018-10-06T08:41:07.849Z,24.87
2018-10-06T08:45:10.759Z,25.70
2018-10-06T08:49:13.610Z,25.23
2018-10-06T08:53:16.731Z,26.13
2018-10-06T08:57:19.588Z,23.43
2018-10-06T09:01:23.230Z,24.27
2018-10-06T09:05:26.087Z,27.03
2018-10-06T09:09:29.082Z,23.33
2018-10-06T09:13:31.930Z,23.60
2018-10-06T09:17:35.031Z,23.13
2018-10-06T09:21:37.891Z,24.23
2018-10-06T09:25:40.787Z,21.80
2018-10-06T09:29:43.856Z,21.43
2018-10-06T09:33:46.875Z,20.90
2018-10-06T09:37:49.738Z,21.90
2018-10-06T09:41:52.895Z,21.20
2018-10-06T09:45:55.722Z,20.10
2018-10-06T09:49:58.611Z,20.47
2018-10-06T09:54:01.707Z,19.13
2018-10-06T09:58:05.088Z,20.03
2018-10-06T10:02:14.151Z,19.13
2018-10-06T10:06:17.347Z,18.07
2018-10-06T10:10:20.231Z,16.67
2018-10-06T10:14:23.146Z,16.37
2018-10-06T10:18:26.122Z,18.53
2018-10-06T10:22:29.391Z,17.80
2018-10-06T10:26:32.266Z,16.10
2018-10-06T10:30:35.711Z,17.00
2018-10-06T10:34:39.143Z,13.67
2018-10-06T10:38:42.107Z,13.33
2018-10-06T10:42:45.163Z,14.13
2018-10-06T10:46:48.071Z,14.30
2018-10-06T10:50:51.190Z,30.13
2018-10-06T10:54:54.176Z,12.90
2018-10-06T10:58:57.242Z,14.63
2018-10-06T11:03:00.311Z,14.20
2018-10-06T11:07:03.207Z,14.07
2018-10-06T11:11:06.060Z,13.27
2018-10-06T11:15:09.190Z,12.73
2018-10-06T11:19:12.043Z,12.40
2018-10-06T11:23:15.139Z,12.20
2018-10-06T11:27:17.997Z,10.80
2018-10-06T11:31:21.099Z,11.80
2018-10-06T11:35:24.157Z,11.10
2018-10-06T11:39:27.043Z,11.30
2018-10-06T11:43:30.099Z,12.53
2018-10-06T11:47:33.009Z,13.10
2018-10-06T11:51:35.874Z,13.60
2018-10-06T11:55:38.763Z,14.07
2018-10-06T11:59:41.775Z,13.90
2018-10-06T12:03:44.754Z,12.97
2018-10-06T12:07:47.607Z,14.63
2018-10-06T12:11:50.518Z,13.17
2018-10-06T12:15:53.580Z,13.30
2018-10-06T12:19:56.487Z,13.20
2018-10-06T12:23:59.547Z,16.07
2018-10-06T12:28:02.668Z,14.20
2018-10-06T12:32:05.562Z,14.30
2018-10-06T12:36:08.680Z,13.47
2018-10-06T12:40:11.535Z,14.10
2018-10-06T12:44:14.445Z,14.13
2018-10-06T12:48:17.302Z,14.57
2018-10-06T12:52:20.282Z,13.73
2018-10-06T12:56:23.348Z,14.40
2018-10-06T13:00:26.371Z,13.00
2018-10-06T13:04:29.451Z,12.10
2018-10-06T13:08:32.603Z,11.80
2018-10-06T13:12:35.463Z,13.20
2018-10-06T13:16:38.588Z,15.47
2018-10-06T13:20:41.470Z,15.67
2018-10-06T13:24:44.391Z,17.93
2018-10-06T13:28:47.450Z,15.07
2018-10-06T13:32:50.563Z,16.77
2018-10-06T13:36:53.414Z,17.67
2018-10-06T13:40:56.307Z,18.90
2018-10-06T13:44:59.511Z,18.20
2018-10-06T13:49:02.423Z,20.80
2018-10-06T13:53:05.488Z,23.03
2018-10-06T13:57:08.611Z,24.87
2018-10-06T14:01:11.467Z,24.80
2018-10-06T14:05:14.607Z,25.13
2018-10-06T14:09:17.499Z,25.17
2018-10-06T14:13:20.402Z,27.00
2018-10-06T14:17:23.275Z,25.63
2018-10-06T14:21:26.171Z,25.43
2018-10-06T14:25:29.239Z,24.57
2018-10-06T14:29:32.143Z,22.13
2018-10-06T14:33:35.228Z,21.27
2018-10-06T14:37:38.351Z,23.47
2018-10-06T14:41:41.207Z,26.10
2018-10-06T14:45:44.460Z,25.27
2018-10-06T14:49:47.315Z,29.30
2018-10-06T14:53:50.234Z,26.97
2018-10-06T14:57:53.099Z,27.27
2018-10-06T15:01:56.036Z,26.83
2018-10-06T15:05:59.116Z,29.30
2018-10-06T15:10:02.039Z,27.30
2018-10-06T15:14:05.476Z,27.20
2018-10-06T15:18:08.364Z,28.63
2018-10-06T15:22:11.443Z,26.13
2018-10-06T15:26:14.346Z,27.53
2018-10-06T15:30:17.194Z,29.33
2018-10-06T15:34:20.178Z,29.40
2018-10-06T15:38:23.290Z,29.00
2018-10-06T15:42:26.419Z,31.60
2018-10-06T15:46:29.519Z,33.73
2018-10-06T15:50:32.429Z,33.60
2018-10-06T15:54:35.491Z,32.93
2018-10-06T15:58:38.399Z,35.10
2018-10-06T16:02:41.368Z,31.63
2018-10-06T16:06:45.024Z,35.43
2018-10-06T16:10:48.076Z,35.87
2018-10-06T16:14:50.983Z,36.57
2018-10-06T16:18:53.838Z,41.30
2018-10-06T16:22:56.730Z,35.73
2018-10-06T16:26:59.590Z,35.63
2018-10-06T16:31:02.719Z,33.73
2018-10-06T16:35:05.606Z,35.73
2018-10-06T16:39:08.522Z,33.80
2018-10-06T16:43:11.583Z,36.07
2018-10-06T16:47:14.630Z,36.17
2018-10-06T16:51:18.318Z,34.27
2018-10-06T16:55:21.214Z,35.43
2018-10-06T16:59:24.588Z,35.43
2018-10-06T17:03:27.440Z,36.97
2018-10-06T17:07:30.330Z,36.17
2018-10-06T17:11:33.391Z,34.43
2018-10-06T17:15:36.290Z,39.00
2018-10-06T17:19:39.356Z,39.60
2018-10-06T17:23:42.418Z,40.80
2018-10-06T17:27:45.743Z,36.50
2018-10-06T17:31:48.586Z,43.07
2018-10-06T17:35:51.703Z,40.77
2018-10-06T17:39:54.571Z,40.70
2018-10-06T17:43:57.838Z,36.73
2018-10-06T17:48:00.903Z,39.23
2018-10-06T17:52:03.815Z,37.30
2018-10-06T17:56:06.729Z,40.10
2018-10-06T18:00:09.743Z,45.73
2018-10-06T18:04:13.538Z,46.60
2018-10-06T18:08:16.714Z,45.43
2018-10-06T18:12:19.878Z,42.13
2018-10-06T18:16:22.954Z,42.13
2018-10-06T18:20:25.879Z,53.03
2018-10-06T18:24:28.886Z,49.50
2018-10-06T18:28:31.735Z,48.20
2018-10-06T18:32:35.115Z,54.90
2018-10-06T18:36:38.311Z,50.80
2018-10-06T18:40:41.380Z,50.47
2018-10-06T18:44:44.266Z,55.53
2018-10-06T18:48:47.388Z,56.83
2018-10-06T18:52:50.485Z,53.30
2018-10-06T18:56:53.531Z,59.00
2018-10-06T19:00:56.546Z,54.37
2018-10-06T19:04:59.779Z,50.00
2018-10-06T19:09:03.071Z,58.97
2018-10-06T19:13:05.948Z,61.63
2018-10-06T19:17:09.240Z,59.73
2018-10-06T19:21:12.517Z,59.50
2018-10-06T19:25:15.370Z,62.37
2018-10-06T19:29:18.279Z,68.30
2018-10-06T19:33:21.356Z,74.20
2018-10-06T19:37:24.426Z,83.90
2018-10-06T19:41:27.358Z,78.50
2018-10-06T19:45:30.627Z,77.37
2018-10-06T19:49:33.694Z,80.50
2018-10-06T19:53:36.539Z,86.43
2018-10-06T19:57:39.450Z,85.60
2018-10-06T20:01:42.318Z,88.30
2018-10-06T20:05:45.297Z,95.60
2018-10-06T20:09:48.363Z,102.00
2018-10-06T20:13:51.271Z,107.13
2018-10-06T20:17:54.123Z,103.87
2018-10-06T20:21:57.239Z,96.90
2018-10-06T20:26:00.102Z,94.07
2018-10-06T20:30:03.035Z,97.10
2018-10-06T20:34:06.323Z,101.50
2018-10-06T20:38:09.195Z,112.60
2018-10-06T20:42:12.111Z,93.50
2018-10-06T20:46:14.987Z,96.07
2018-10-06T20:50:17.870Z,100.77
2018-10-06T20:54:20.717Z,90.20
2018-10-06T20:58:23.731Z,82.83
2018-10-06T21:02:26.787Z,82.70
2018-10-06T21:06:29.923Z,76.10
2018-10-06T21:10:32.779Z,75.80
2018-10-06T21:14:35.887Z,66.17
2018-10-06T21:18:38.794Z,59.57
2018-10-06T21:22:41.722Z,53.37
2018-10-06T21:26:44.795Z,59.50
2018-10-06T21:30:47.691Z,50.50
2018-10-06T21:34:50.861Z,36.73
2018-10-06T21:38:53.801Z,31.13
2018-10-06T21:42:56.822Z,27.20
2018-10-06T21:47:00.043Z,19.53
2018-10-06T21:51:03.099Z,20.90
2018-10-06T21:55:06.211Z,13.57
2018-10-06T21:59:09.071Z,10.33
2018-10-06T22:03:12.360Z,9.80
2018-10-06T22:07:15.211Z,20.87
2018-10-06T22:11:18.119Z,8.93
2018-10-06T22:15:21.229Z,8.53
2018-10-06T22:19:24.287Z,5.50
2018-10-06T22:23:27.229Z,10.90
2018-10-06T22:27:30.118Z,12.40
2018-10-06T22:31:33.187Z,8.33
2018-10-06T22:35:36.078Z,12.83
2018-10-06T22:39:39.159Z,12.17
2018-10-06T22:43:42.291Z,7.37
2018-10-06T22:47:45.133Z,4.60
2018-10-06T22:51:48.018Z,8.63
2018-10-06T22:55:50.871Z,3.90
2018-10-06T22:59:53.773Z,4.60
2018-10-06T23:03:56.737Z,3.00
2018-10-06T23:07:59.642Z,4.60
2018-10-06T23:12:02.703Z,2.43
2018-10-06T23:16:05.903Z,3.07
2018-10-06T23:20:08.959Z,2.20
2018-10-06T23:24:11.842Z,4.33
2018-10-06T23:28:14.820Z,5.30
2018-10-06T23:32:17.734Z,1.50
2018-10-06T23:36:20.574Z,3.30
2018-10-06T23:40:23.490Z,4.10
2018-10-06T23:44:26.334Z,5.43
2018-10-06T23:48:29.237Z,4.57
2018-10-06T23:52:32.083Z,4.50
2018-10-06T23:56:34.982Z,4.10
